createdAt,value
2019-01-23T00:01:25.404Z,98401.29
2019-01-23T00:03:54.882Z,98389.92
2019-01-23T00:06:24.066Z,98392.27
2019-01-23T00:08:53.251Z,98393.82
2019-01-23T00:11:22.857Z,98390.66
2019-01-23T00:14:10.976Z,98389.33
2019-01-23T00:16:40.196Z,98393.67
2019-01-23T00:19:09.388Z,98394.58
2019-01-23T00:21:38.698Z,98384.73
2019-01-23T00:24:07.873Z,98381.58
2019-01-23T00:26:37.083Z,98379.38
2019-01-23T00:29:25.455Z,98371.99
2019-01-23T00:31:54.944Z,98369.84
2019-01-23T00:34:24.114Z,98364.30
2019-01-23T00:36:53.320Z,98362.82
2019-01-23T00:39:22.495Z,98357.81
2019-01-23T00:41:51.750Z,98355.16
2019-01-23T00:44:20.943Z,98356.41
2019-01-23T00:46:50.426Z,98347.41
2019-01-23T00:49:19.645Z,98345.55
2019-01-23T00:51:48.850Z,98345.86
2019-01-23T00:54:18.026Z,98340.46
2019-01-23T00:56:47.215Z,98338.39
2019-01-23T00:59:16.642Z,98331.59
2019-01-23T01:01:45.842Z,98333.31
2019-01-23T01:04:15.018Z,98333.81
2019-01-23T01:06:44.515Z,98329.83
2019-01-23T01:09:13.678Z,98331.16
2019-01-23T01:11:42.882Z,98322.09
2019-01-23T01:14:12.084Z,98314.98
2019-01-23T01:16:41.560Z,98318.18
2019-01-23T01:19:10.746Z,98319.94
2019-01-23T01:21:39.936Z,98323.77
2019-01-23T01:24:09.377Z,98320.67
2019-01-23T01:26:38.582Z,98318.18
2019-01-23T01:29:07.756Z,98315.52
2019-01-23T01:31:36.955Z,98313.65
2019-01-23T01:34:06.119Z,98310.13
2019-01-23T01:36:35.318Z,98315.52
2019-01-23T01:39:07.027Z,98316.63
2019-01-23T01:41:36.265Z,98314.63
2019-01-23T01:44:05.546Z,98310.20
2019-01-23T01:46:34.743Z,98302.82
2019-01-23T01:49:03.933Z,98312.94
2019-01-23T01:51:33.162Z,98308.34
2019-01-23T01:54:02.391Z,98312.40
2019-01-23T01:56:31.622Z,98316.19
2019-01-23T01:59:02.946Z,98307.40
2019-01-23T02:01:31.733Z,98305.17
2019-01-23T02:04:01.396Z,98308.49
2019-01-23T02:06:30.598Z,98302.59
2019-01-23T02:08:59.782Z,98302.98
2019-01-23T02:11:28.964Z,98296.53
2019-01-23T02:13:58.143Z,98297.12
2019-01-23T02:16:27.350Z,98294.38
2019-01-23T02:18:56.536Z,98288.87
2019-01-23T02:21:25.857Z,98293.87
2019-01-23T02:23:55.040Z,98285.98
2019-01-23T02:26:24.253Z,98278.00
2019-01-23T02:28:53.447Z,98277.41
2019-01-23T02:31:22.711Z,98281.25
2019-01-23T02:33:51.879Z,98275.66
2019-01-23T02:36:21.076Z,98273.42
2019-01-23T02:38:50.263Z,98268.34
2019-01-23T02:41:19.739Z,98264.28
2019-01-23T02:43:48.910Z,98262.79
2019-01-23T02:46:18.135Z,98251.11
2019-01-23T02:48:47.275Z,98254.97
2019-01-23T02:51:16.472Z,98254.38
2019-01-23T02:53:52.549Z,98249.50
2019-01-23T02:56:21.723Z,98247.78
2019-01-23T02:58:50.899Z,98244.26
2019-01-23T03:01:20.107Z,98246.76
2019-01-23T03:03:49.554Z,98239.80
2019-01-23T03:06:18.769Z,98242.84
2019-01-23T03:08:48.196Z,98235.10
2019-01-23T03:11:17.405Z,98230.88
2019-01-23T03:13:46.583Z,98226.23
2019-01-23T03:16:15.785Z,98219.35
2019-01-23T03:18:45.269Z,98217.75
2019-01-23T03:21:14.434Z,98209.77
2019-01-23T03:23:43.730Z,98211.69
2019-01-23T03:26:12.902Z,98207.30
2019-01-23T03:28:42.084Z,98205.03
2019-01-23T03:31:11.290Z,98200.16
2019-01-23T03:33:40.477Z,98200.47
2019-01-23T03:36:09.686Z,98196.98
2019-01-23T03:38:39.250Z,98192.63
2019-01-23T03:41:08.438Z,98186.28
2019-01-23T03:43:37.637Z,98181.11
2019-01-23T03:46:06.806Z,98180.53
2019-01-23T03:48:36.024Z,98181.55
2019-01-23T03:51:05.189Z,98181.78
2019-01-23T03:53:34.411Z,98178.07
2019-01-23T03:56:03.851Z,98180.22
2019-01-23T03:58:33.158Z,98172.55
2019-01-23T04:01:02.353Z,98169.59
2019-01-23T04:03:31.554Z,98167.30
2019-01-23T04:06:00.709Z,98169.42
2019-01-23T04:08:29.915Z,98177.13
2019-01-23T04:10:59.100Z,98170.64
2019-01-23T04:13:28.295Z,98171.05
2019-01-23T04:15:57.551Z,98168.98
2019-01-23T04:18:26.762Z,98168.74
2019-01-23T04:20:55.937Z,98169.56
2019-01-23T04:23:25.415Z,98167.95
2019-01-23T04:25:54.582Z,98175.39
2019-01-23T04:28:24.184Z,98170.00
2019-01-23T04:30:53.691Z,98164.48
2019-01-23T04:33:22.879Z,98162.09
2019-01-23T04:35:52.074Z,98165.95
2019-01-23T04:38:21.615Z,98162.91
2019-01-23T04:40:50.793Z,98158.34
2019-01-23T04:43:20.260Z,98151.35
2019-01-23T04:45:49.450Z,98149.27
2019-01-23T04:48:18.667Z,98150.81
2019-01-23T04:51:07.035Z,98151.94
2019-01-23T04:53:40.194Z,98149.63
2019-01-23T04:56:09.641Z,98150.51
2019-01-23T04:58:38.843Z,98150.20
2019-01-23T05:01:08.011Z,98148.02
2019-01-23T05:03:37.236Z,98147.20
2019-01-23T05:06:06.500Z,98144.54
2019-01-23T05:08:35.710Z,98144.75
2019-01-23T05:11:04.895Z,98146.89
2019-01-23T05:13:34.132Z,98141.81
2019-01-23T05:16:03.584Z,98139.73
2019-01-23T05:18:32.787Z,98142.46
2019-01-23T05:21:01.974Z,98143.14
2019-01-23T05:23:31.167Z,98140.48
2019-01-23T05:26:00.600Z,98140.34
2019-01-23T05:28:29.828Z,98141.44
2019-01-23T05:30:58.985Z,98134.68
2019-01-23T05:33:28.172Z,98139.02
2019-01-23T05:35:57.368Z,98136.66
2019-01-23T05:38:26.879Z,98134.58
2019-01-23T05:40:56.083Z,98132.13
2019-01-23T05:43:25.279Z,98136.36
2019-01-23T05:45:54.448Z,98126.37
2019-01-23T05:48:23.656Z,98134.79
2019-01-23T05:50:52.845Z,98120.78
2019-01-23T05:53:22.099Z,98127.63
2019-01-23T05:55:51.276Z,98124.97
2019-01-23T05:58:20.496Z,98132.88
2019-01-23T06:00:49.970Z,98122.83
2019-01-23T06:03:19.192Z,98124.16
2019-01-23T06:05:48.383Z,98121.22
2019-01-23T06:08:17.604Z,98123.37
2019-01-23T06:10:46.778Z,98119.89
2019-01-23T06:13:16.259Z,98129.20
2019-01-23T06:15:45.445Z,98135.16
2019-01-23T06:18:14.683Z,98133.77
2019-01-23T06:20:43.849Z,98132.30
2019-01-23T06:23:13.320Z,98132.37
2019-01-23T06:25:42.510Z,98126.70
2019-01-23T06:28:12.053Z,98122.83
2019-01-23T06:30:41.222Z,98127.05
2019-01-23T06:33:10.466Z,98122.48
2019-01-23T06:35:39.720Z,98130.39
2019-01-23T06:38:08.899Z,98129.50
2019-01-23T06:40:38.094Z,98128.41
2019-01-23T06:43:07.274Z,98126.22
2019-01-23T06:45:36.484Z,98126.22
2019-01-23T06:48:45.069Z,98128.73
2019-01-23T06:51:14.249Z,98130.58
2019-01-23T06:53:43.467Z,98130.73
2019-01-23T06:56:12.641Z,98134.49
2019-01-23T06:59:01.278Z,98125.94
2019-01-23T07:01:30.447Z,98132.93
2019-01-23T07:03:59.650Z,98132.89
2019-01-23T07:06:28.816Z,98132.27
2019-01-23T07:08:58.013Z,98139.30
2019-01-23T07:11:27.194Z,98130.50
2019-01-23T07:13:56.410Z,98125.94
2019-01-23T07:16:25.661Z,98132.56
2019-01-23T07:18:54.863Z,98133.95
2019-01-23T07:21:24.036Z,98138.22
2019-01-23T07:23:53.239Z,98132.05
2019-01-23T07:26:22.411Z,98140.87
2019-01-23T07:28:51.595Z,98142.00
2019-01-23T07:31:20.763Z,98142.59
2019-01-23T07:33:49.957Z,98146.71
2019-01-23T07:36:19.123Z,98146.10
2019-01-23T07:38:48.305Z,98149.06
2019-01-23T07:41:17.472Z,98146.17
2019-01-23T07:46:13.156Z,98149.04
2019-01-23T07:48:42.336Z,98155.69
2019-01-23T07:51:11.571Z,98149.63
2019-01-23T07:53:40.767Z,98154.19
2019-01-23T07:56:10.347Z,98158.92
2019-01-23T07:58:39.526Z,98167.79
2019-01-23T08:01:08.820Z,98159.20
2019-01-23T08:03:38.016Z,98157.13
2019-01-23T08:06:07.225Z,98152.77
2019-01-23T08:08:36.407Z,98156.23
2019-01-23T08:11:05.645Z,98157.84
2019-01-23T08:13:34.807Z,98162.23
2019-01-23T08:16:04.406Z,98162.75
2019-01-23T08:18:33.591Z,98160.54
2019-01-23T08:21:03.370Z,98173.97
2019-01-23T08:23:32.531Z,98170.50
2019-01-23T08:26:01.747Z,98170.94
2019-01-23T08:28:30.942Z,98167.05
2019-01-23T08:31:00.135Z,98165.34
2019-01-23T08:33:29.320Z,98177.48
2019-01-23T08:35:58.905Z,98172.37
2019-01-23T08:38:28.145Z,98175.27
2019-01-23T08:40:57.709Z,98177.38
2019-01-23T08:43:26.900Z,98180.75
2019-01-23T08:45:56.106Z,98186.17
2019-01-23T08:48:25.308Z,98189.38
2019-01-23T08:50:54.779Z,98184.39
2019-01-23T08:53:24.237Z,98184.97
2019-01-23T08:55:53.976Z,98182.24
2019-01-23T08:58:24.391Z,98178.80
2019-01-23T09:00:53.877Z,98186.30
2019-01-23T09:03:23.064Z,98185.31
2019-01-23T09:05:52.291Z,98192.35
2019-01-23T09:08:21.473Z,98190.16
2019-01-23T09:10:50.997Z,98196.48
2019-01-23T09:13:20.469Z,98191.34
2019-01-23T09:15:50.189Z,98194.28
2019-01-23T09:18:19.419Z,98194.72
2019-01-23T09:20:48.967Z,98199.56
2019-01-23T09:23:18.187Z,98206.23
2019-01-23T09:25:50.153Z,98209.59
2019-01-23T09:28:18.424Z,98215.97
2019-01-23T09:31:03.639Z,98219.57
2019-01-23T09:34:11.213Z,98229.29
2019-01-23T09:37:11.009Z,98231.02
2019-01-23T09:39:57.736Z,98237.49
2019-01-23T09:43:05.291Z,98232.86
2019-01-23T09:46:13.712Z,98232.71
2019-01-23T09:49:20.958Z,98234.38
2019-01-23T09:52:28.634Z,98233.28
2019-01-23T09:54:57.818Z,98234.49
2019-01-23T09:57:27.365Z,98232.79
2019-01-23T09:59:56.598Z,98236.91
2019-01-23T10:02:26.522Z,98244.26
2019-01-23T10:04:55.746Z,98241.02
2019-01-23T10:07:24.993Z,98246.11
2019-01-23T10:09:54.223Z,98246.55
2019-01-23T10:12:23.447Z,98246.92
2019-01-23T10:14:52.686Z,98249.97
2019-01-23T10:17:22.224Z,98250.20
2019-01-23T10:19:52.690Z,98253.31
2019-01-23T10:22:22.333Z,98254.70
2019-01-23T10:24:51.793Z,98255.95
2019-01-23T10:27:21.029Z,98261.55
2019-01-23T10:29:50.247Z,98266.02
2019-01-23T10:32:19.478Z,98261.74
2019-01-23T10:34:48.670Z,98263.00
2019-01-23T10:37:19.675Z,98266.39
2019-01-23T10:42:37.005Z,98272.44
2019-01-23T10:45:46.046Z,98281.56
2019-01-23T10:48:15.256Z,98271.16
2019-01-23T10:50:44.491Z,98273.13
2019-01-23T10:53:13.730Z,98270.16
2019-01-23T10:55:43.071Z,98278.16
2019-01-23T10:58:12.287Z,98286.78
2019-01-23T11:00:41.698Z,98285.45
2019-01-23T11:03:10.944Z,98290.22
2019-01-23T11:05:40.186Z,98293.60
2019-01-23T11:08:09.546Z,98287.08
2019-01-23T11:10:39.026Z,98289.80
2019-01-23T11:13:08.533Z,98291.59
2019-01-23T11:15:37.741Z,98283.51
2019-01-23T11:18:46.692Z,98284.84
2019-01-23T11:21:15.928Z,98280.06
2019-01-23T11:23:45.124Z,98282.43
2019-01-23T11:26:14.643Z,98279.67
2019-01-23T11:28:43.864Z,98275.40
2019-01-23T11:31:20.186Z,98281.73
2019-01-23T11:33:44.348Z,98285.44
2019-01-23T11:36:13.589Z,98295.20
2019-01-23T11:38:42.823Z,98301.97
2019-01-23T11:41:12.174Z,98293.67
2019-01-23T11:43:41.380Z,98298.70
2019-01-23T11:46:10.593Z,98304.75
2019-01-23T11:48:39.829Z,98298.80
2019-01-23T11:51:09.223Z,98298.41
2019-01-23T11:53:38.449Z,98299.84
2019-01-23T11:56:08.859Z,98296.09
2019-01-23T11:58:38.598Z,98301.41
2019-01-23T12:04:17.253Z,98299.33
2019-01-23T12:06:46.557Z,98311.51
2019-01-23T12:09:15.797Z,98305.90
2019-01-23T12:11:45.020Z,98307.64
2019-01-23T12:14:14.798Z,98310.61
2019-01-23T12:16:44.391Z,98312.34
2019-01-23T12:19:13.583Z,98317.79
2019-01-23T12:21:42.772Z,98322.78
2019-01-23T12:24:12.048Z,98321.08
2019-01-23T12:26:41.229Z,98314.00
2019-01-23T12:29:10.449Z,98312.69
2019-01-23T12:31:39.627Z,98312.95
2019-01-23T12:34:08.834Z,98303.53
2019-01-23T12:36:38.020Z,98305.13
2019-01-23T12:39:48.020Z,98305.38
2019-01-23T12:42:17.214Z,98304.56
2019-01-23T12:44:46.691Z,98304.31
2019-01-23T12:47:16.120Z,98297.23
2019-01-23T12:49:45.320Z,98301.34
2019-01-23T12:52:14.515Z,98295.79
2019-01-23T12:54:43.986Z,98297.89
2019-01-23T12:57:13.439Z,98296.31
2019-01-23T12:59:42.633Z,98305.00
2019-01-23T13:05:21.051Z,98305.23
2019-01-23T13:07:50.369Z,98306.58
2019-01-23T13:10:20.564Z,98307.35
2019-01-23T13:12:49.754Z,98313.21
2019-01-23T13:15:21.319Z,98311.91
2019-01-23T13:17:50.541Z,98312.38
2019-01-23T13:20:20.758Z,98315.91
2019-01-23T13:22:49.956Z,98322.20
2019-01-23T13:25:21.378Z,98320.16
2019-01-23T13:27:50.601Z,98321.83
2019-01-23T13:30:21.546Z,98324.20
2019-01-23T13:32:50.857Z,98326.02
2019-01-23T13:35:39.808Z,98330.22
2019-01-23T13:38:29.848Z,98334.22
2019-01-23T13:40:59.306Z,98335.28
2019-01-23T13:43:28.528Z,98337.84
2019-01-23T13:45:57.713Z,98339.88
2019-01-23T13:48:27.158Z,98344.80
2019-01-23T13:50:56.381Z,98346.41
2019-01-23T13:53:25.552Z,98344.69
2019-01-23T13:55:54.829Z,98341.02
2019-01-23T13:58:24.254Z,98342.41
2019-01-23T14:00:53.763Z,98344.63
2019-01-23T14:03:22.955Z,98341.53
2019-01-23T14:05:52.452Z,98348.69
2019-01-23T14:08:21.636Z,98343.99
2019-01-23T14:10:50.858Z,98345.20
2019-01-23T14:13:20.040Z,98357.69
2019-01-23T14:15:49.252Z,98352.23
2019-01-23T14:18:18.469Z,98356.05
2019-01-23T14:20:47.952Z,98359.34
2019-01-23T14:23:17.133Z,98365.64
2019-01-23T14:25:46.646Z,98370.56
2019-01-23T14:28:16.228Z,98362.70
2019-01-23T14:30:46.323Z,98375.17
2019-01-23T14:33:15.581Z,98374.39
2019-01-23T14:35:45.853Z,98379.41
2019-01-23T14:38:15.393Z,98376.65
2019-01-23T14:40:44.929Z,98381.47
2019-01-23T14:43:14.126Z,98387.92
2019-01-23T14:45:43.353Z,98397.42
2019-01-23T14:48:12.522Z,98392.47
2019-01-23T14:50:41.738Z,98398.75
2019-01-23T14:53:10.945Z,98401.63
2019-01-23T14:55:40.162Z,98408.03
2019-01-23T14:58:09.639Z,98407.45
2019-01-23T15:00:38.865Z,98410.55
2019-01-23T15:03:08.336Z,98414.11
2019-01-23T15:05:37.539Z,98416.02
2019-01-23T15:08:07.000Z,98412.91
2019-01-23T15:10:36.502Z,98419.85
2019-01-23T15:13:45.240Z,98418.08
2019-01-23T15:16:14.803Z,98426.95
2019-01-23T15:18:43.995Z,98426.66
2019-01-23T15:21:13.232Z,98432.34
2019-01-23T15:23:42.800Z,98434.83
2019-01-23T15:26:12.415Z,98429.29
2019-01-23T15:28:41.910Z,98440.32
2019-01-23T15:31:11.412Z,98452.97
2019-01-23T15:33:40.844Z,98455.59
2019-01-23T15:36:10.063Z,98453.72
2019-01-23T15:38:39.240Z,98460.30
2019-01-23T15:41:08.444Z,98456.30
2019-01-23T15:43:37.632Z,98466.24
2019-01-23T15:46:07.243Z,98466.45
2019-01-23T15:48:36.492Z,98465.93
2019-01-23T15:51:05.718Z,98468.91
2019-01-23T15:53:35.229Z,98472.52
2019-01-23T15:56:04.815Z,98473.33
2019-01-23T15:58:34.015Z,98483.59
2019-01-23T16:01:03.222Z,98483.67
2019-01-23T16:03:32.703Z,98480.42
2019-01-23T16:06:02.168Z,98478.73
2019-01-23T16:08:31.424Z,98486.56
2019-01-23T16:11:00.619Z,98481.23
2019-01-23T16:13:29.848Z,98491.95
2019-01-23T16:15:59.338Z,98489.96
2019-01-23T16:18:28.544Z,98493.88
2019-01-23T16:20:58.002Z,98492.98
2019-01-23T16:23:27.653Z,98492.70
2019-01-23T16:25:58.703Z,98502.67
2019-01-23T16:28:27.908Z,98506.44
2019-01-23T16:30:57.090Z,98506.59
2019-01-23T16:33:26.553Z,98512.50
2019-01-23T16:35:55.756Z,98519.39
2019-01-23T16:38:25.084Z,98518.41
2019-01-23T16:40:54.562Z,98524.47
2019-01-23T16:43:23.768Z,98530.17
2019-01-23T16:45:52.977Z,98526.97
2019-01-23T16:48:22.181Z,98526.09
2019-01-23T16:50:51.398Z,98530.52
2019-01-23T16:53:20.672Z,98526.53
2019-01-23T16:55:49.847Z,98531.84
2019-01-23T16:58:19.059Z,98540.34
2019-01-23T17:00:48.239Z,98545.31
2019-01-23T17:03:17.509Z,98545.23
2019-01-23T17:05:46.712Z,98550.47
2019-01-23T17:08:16.011Z,98556.70
2019-01-23T17:10:45.468Z,98553.36
2019-01-23T17:13:14.683Z,98562.16
2019-01-23T17:15:43.873Z,98567.77
2019-01-23T17:18:13.111Z,98564.13
2019-01-23T17:20:47.936Z,98573.53
2019-01-23T17:23:17.135Z,98568.19
2019-01-23T17:25:46.341Z,98575.59
2019-01-23T17:28:55.229Z,98578.06
2019-01-23T17:31:24.435Z,98582.48
2019-01-23T17:33:53.633Z,98584.91
2019-01-23T17:36:22.815Z,98584.23
2019-01-23T17:38:52.012Z,98589.30
2019-01-23T17:41:21.202Z,98591.14
2019-01-23T17:43:50.584Z,98601.24
2019-01-23T17:49:27.357Z,98605.23
2019-01-23T17:51:56.803Z,98603.67
2019-01-23T17:54:26.004Z,98612.02
2019-01-23T17:56:55.468Z,98621.25
2019-01-23T17:59:24.692Z,98620.12
2019-01-23T18:01:54.181Z,98627.67
2019-01-23T18:04:23.398Z,98623.38
2019-01-23T18:06:52.878Z,98631.98
2019-01-23T18:09:22.370Z,98631.61
2019-01-23T18:11:51.966Z,98634.02
2019-01-23T18:14:21.196Z,98637.13
2019-01-23T18:16:50.408Z,98639.10
2019-01-23T18:19:19.621Z,98643.00
2019-01-23T18:21:48.920Z,98643.13
2019-01-23T18:24:18.119Z,98649.73
2019-01-23T18:26:47.574Z,98645.52
2019-01-23T18:29:16.797Z,98656.34
2019-01-23T18:31:58.661Z,98647.08
2019-01-23T18:35:05.937Z,98648.41
2019-01-23T18:38:13.218Z,98658.00
2019-01-23T18:41:04.869Z,98655.70
2019-01-23T18:44:12.134Z,98663.95
2019-01-23T18:47:07.878Z,98669.05
2019-01-23T18:50:15.142Z,98678.91
2019-01-23T18:52:44.327Z,98676.94
2019-01-23T18:55:33.456Z,98670.88
2019-01-23T18:58:02.979Z,98674.56
2019-01-23T19:00:32.178Z,98684.59
2019-01-23T19:03:06.933Z,98679.82
2019-01-23T19:05:32.564Z,98683.87
2019-01-23T19:08:02.042Z,98686.66
2019-01-23T19:10:31.490Z,98682.72
2019-01-23T19:13:01.019Z,98688.48
2019-01-23T19:15:30.229Z,98696.33
2019-01-23T19:18:04.993Z,98698.16
2019-01-23T19:20:34.508Z,98704.45
2019-01-23T19:23:03.714Z,98712.44
2019-01-23T19:25:33.235Z,98711.84
2019-01-23T19:28:02.789Z,98710.31
2019-01-23T19:30:32.002Z,98711.09
2019-01-23T19:33:01.191Z,98712.71
2019-01-23T19:35:31.116Z,98715.73
2019-01-23T19:38:00.354Z,98709.49
2019-01-23T19:40:29.672Z,98709.78
2019-01-23T19:42:59.124Z,98714.45
2019-01-23T19:45:28.371Z,98716.56
2019-01-23T19:47:58.392Z,98718.66
2019-01-23T19:50:27.889Z,98720.59
2019-01-23T19:52:57.397Z,98721.05
2019-01-23T19:55:45.975Z,98716.74
2019-01-23T19:58:15.234Z,98723.02
2019-01-23T20:00:44.751Z,98721.88
2019-01-23T20:03:20.272Z,98730.72
2019-01-23T20:05:45.504Z,98728.56
2019-01-23T20:08:14.720Z,98728.79
2019-01-23T20:10:44.373Z,98736.26
2019-01-23T20:13:34.289Z,98732.01
2019-01-23T20:16:03.641Z,98735.08
2019-01-23T20:18:32.882Z,98740.41
2019-01-23T20:21:02.507Z,98744.42
2019-01-23T20:23:31.765Z,98746.89
2019-01-23T20:26:01.558Z,98745.72
2019-01-23T20:28:31.097Z,98752.88
2019-01-23T20:31:00.387Z,98749.61
2019-01-23T20:33:31.306Z,98752.37
2019-01-23T20:36:01.619Z,98760.61
2019-01-23T20:38:31.166Z,98761.71
2019-01-23T20:41:00.423Z,98761.62
2019-01-23T20:43:30.777Z,98761.80
2019-01-23T20:46:00.374Z,98767.86
2019-01-23T20:48:29.562Z,98771.55
2019-01-23T20:50:59.134Z,98776.08
2019-01-23T20:53:28.587Z,98770.92
2019-01-23T20:55:57.936Z,98779.22
2019-01-23T20:58:27.145Z,98780.36
2019-01-23T21:00:56.707Z,98782.31
2019-01-23T21:03:25.901Z,98778.83
2019-01-23T21:05:55.373Z,98780.07
2019-01-23T21:08:24.928Z,98784.88
2019-01-23T21:10:54.408Z,98782.41
2019-01-23T21:13:24.557Z,98785.05
2019-01-23T21:15:53.760Z,98784.95
2019-01-23T21:18:23.238Z,98790.39
2019-01-23T21:20:52.702Z,98793.37
2019-01-23T21:23:22.186Z,98793.14
2019-01-23T21:25:51.410Z,98798.36
2019-01-23T21:28:20.586Z,98802.07
2019-01-23T21:30:50.394Z,98803.39
2019-01-23T21:33:19.578Z,98811.17
2019-01-23T21:35:49.078Z,98810.65
2019-01-23T21:38:18.261Z,98816.69
2019-01-23T21:40:47.472Z,98815.65
2019-01-23T21:43:16.761Z,98817.48
2019-01-23T21:45:45.988Z,98819.95
2019-01-23T21:48:15.168Z,98820.68
2019-01-23T21:50:44.425Z,98825.56
2019-01-23T21:53:13.615Z,98829.16
2019-01-23T21:58:17.835Z,98828.66
2019-01-23T22:00:49.663Z,98834.36
2019-01-23T22:03:18.842Z,98838.66
2019-01-23T22:05:48.083Z,98836.09
2019-01-23T22:08:17.834Z,98839.44
2019-01-23T22:10:47.083Z,98842.72
2019-01-23T22:13:16.280Z,98852.66
2019-01-23T22:15:45.765Z,98848.88
2019-01-23T22:18:14.979Z,98852.27
2019-01-23T22:20:44.572Z,98860.14
2019-01-23T22:23:14.399Z,98856.38
2019-01-23T22:25:43.909Z,98861.96
2019-01-23T22:28:32.163Z,98866.58
2019-01-23T22:31:01.419Z,98866.39
2019-01-23T22:33:30.871Z,98868.44
2019-01-23T22:36:00.107Z,98872.83
2019-01-23T22:38:29.315Z,98876.70
2019-01-23T22:40:58.532Z,98881.20
2019-01-23T22:43:27.722Z,98885.82
2019-01-23T22:45:57.252Z,98885.63
2019-01-23T22:48:26.431Z,98898.41
2019-01-23T22:50:55.669Z,98898.19
2019-01-23T22:53:24.842Z,98904.63
2019-01-23T22:55:54.092Z,98904.84
2019-01-23T22:58:23.675Z,98907.50
2019-01-23T23:04:08.138Z,98911.80
2019-01-23T23:06:37.343Z,98912.02
2019-01-23T23:11:59.834Z,98922.43
2019-01-23T23:14:29.048Z,98935.94
2019-01-23T23:16:58.298Z,98940.43
2019-01-23T23:19:27.475Z,98944.84
2019-01-23T23:22:15.772Z,98945.14
2019-01-23T23:24:45.244Z,98953.32
2019-01-23T23:27:14.727Z,98945.34
2019-01-23T23:29:44.164Z,98955.05
2019-01-23T23:32:13.640Z,98958.31
2019-01-23T23:34:43.022Z,98967.62
2019-01-23T23:37:12.226Z,98963.45
2019-01-23T23:39:41.454Z,98968.05
2019-01-23T23:42:10.752Z,98967.72
2019-01-23T23:44:40.055Z,98973.65
2019-01-23T23:47:09.350Z,98965.89
2019-01-23T23:49:38.587Z,98972.94
2019-01-23T23:52:08.281Z,98973.97
2019-01-23T23:54:37.524Z,98976.13
2019-01-23T23:57:07.127Z,98983.06
2019-01-23T23:59:38.943Z,98987.27
